Time;durP1;ratioP1;P1;durP2;ratioP2;P2;SDS_P1;SDS_P2;PMS_P1;PMS_P2;Temp;Humidity;BMP_temperature;BMP_pressure;BME280_temperature;BME280_humidity;BME280_pressure;Samples;Min_cycle;Max_cycle;Signal;HPM_P1;HPM_P2
2022/11/23 00:01:11;;;;;;;6.63;2.35;;;;;;;6.53;71.01;98527.75;1090009;31;20592;-78
2022/11/23 00:02:15;;;;;;;8.57;2.10;;;;;;;6.54;71.10;98533.88;1087420;54;20014;-80
2022/11/23 00:03:16;;;;;;;4.85;1.75;;;;;;;6.45;71.49;98534.81;1087480;54;20049;-79
2022/11/23 00:04:21;;;;;;;5.97;2.45;;;;;;;6.62;70.99;98535.78;1087339;54;20019;-80
2022/11/23 00:05:23;;;;;;;6.65;2.30;;;;;;;6.59;70.97;98536.94;1087393;54;20031;-78
2022/11/23 00:06:27;;;;;;;7.50;2.33;;;;;;;6.47;71.47;98535.50;1087403;54;20053;-78
2022/11/23 00:07:29;;;;;;;6.38;2.10;;;;;;;6.44;71.28;98535.81;1087477;54;20061;-81
2022/11/23 00:08:33;;;;;;;5.53;2.00;;;;;;;6.45;71.39;98540.97;1087513;54;20042;-80
2022/11/23 00:09:37;;;;;;;7.00;2.17;;;;;;;6.35;71.62;98543.72;1087484;54;20073;-80
2022/11/23 00:10:38;;;;;;;5.35;2.30;;;;;;;6.29;71.94;98541.69;1087482;54;20042;-79
2022/11/23 00:11:43;;;;;;;9.65;2.38;;;;;;;6.44;71.73;98538.47;1087455;54;20030;-79
2022/11/23 00:12:47;;;;;;;9.35;2.60;;;;;;;6.28;72.19;98534.72;1087580;54;21031;-79
2022/11/23 00:13:51;;;;;;;9.82;2.88;;;;;;;6.24;72.38;98536.00;1087500;54;20030;-79
2022/11/23 00:14:53;;;;;;;8.40;2.60;;;;;;;6.29;72.09;98536.38;1087404;54;20069;-80
2022/11/23 00:15:57;;;;;;;7.85;3.30;;;;;;;6.25;72.33;98532.34;1087458;54;20027;-79
2022/11/23 00:16:58;;;;;;;6.57;2.80;;;;;;;6.39;72.17;98536.28;1087483;54;20067;-79
2022/11/23 00:18:03;;;;;;;7.50;2.33;;;;;;;6.40;71.94;98535.28;1087412;54;20033;-80
2022/11/23 00:19:08;;;;;;;6.47;2.30;;;;;;;6.38;71.73;98532.81;1087375;54;21027;-79
2022/11/23 00:20:10;;;;;;;6.75;2.10;;;;;;;6.42;71.58;98529.84;1087422;54;20077;-78
2022/11/23 00:21:16;;;;;;;7.13;2.00;;;;;;;6.42;71.60;98529.84;1092416;31;20617;-79
2022/11/23 00:22:17;;;;;;;6.05;1.90;;;;;;;6.37;71.79;98533.78;1087482;54;20038;-79
2022/11/23 00:23:21;;;;;;;6.75;1.92;;;;;;;6.49;71.28;98536.19;1087411;54;20036;-80
2022/11/23 00:24:23;;;;;;;5.10;2.05;;;;;;;6.36;71.77;98534.75;1088241;46;20073;-79
2022/11/23 00:25:27;;;;;;;5.90;2.22;;;;;;;6.39;71.88;98534.47;1087156;54;20030;-78
2022/11/23 00:26:28;;;;;;;5.95;1.85;;;;;;;6.53;71.18;98534.88;1087380;54;20030;-79
2022/11/23 00:27:33;;;;;;;6.75;1.92;;;;;;;6.54;71.39;98536.53;1087235;54;20094;-79
2022/11/23 00:28:39;;;;;;;4.93;1.88;;;;;;;6.56;71.18;98537.22;1089405;39;20620;-79
2022/11/23 00:29:43;;;;;;;6.45;1.95;;;;;;;6.48;71.21;98534.53;1087401;54;20035;-78
2022/11/23 00:30:48;;;;;;;6.35;1.90;;;;;;;6.39;71.56;98537.13;1087515;54;20046;-79
2022/11/23 00:31:52;;;;;;;7.63;2.00;;;;;;;6.50;71.28;98532.56;1088895;39;20590;-80
2022/11/23 00:32:54;;;;;;;6.38;1.85;;;;;;;6.39;71.24;98537.13;1087384;54;20068;-78
2022/11/23 00:33:59;;;;;;;5.47;1.80;;;;;;;6.55;70.96;98536.41;1087747;46;20078;-78
2022/11/23 00:35:01;;;;;;;7.35;1.83;;;;;;;6.46;71.16;98532.03;1087384;54;20046;-78
2022/11/23 00:36:07;;;;;;;6.85;2.00;;;;;;;6.41;71.45;98529.00;1087398;54;20030;-78
2022/11/23 00:37:09;;;;;;;5.90;2.10;;;;;;;6.43;71.24;98537.63;1087358;54;20118;-78
2022/11/23 00:38:13;;;;;;;6.72;2.38;;;;;;;6.36;71.54;98532.13;1087280;54;20582;-79
2022/11/23 00:39:17;;;;;;;4.97;2.10;;;;;;;6.50;70.83;98536.03;1087448;54;20110;-79
2022/11/23 00:40:19;;;;;;;5.30;2.00;;;;;;;6.44;71.40;98543.78;1087258;54;20054;-79
2022/11/23 00:41:25;;;;;;;6.93;2.10;;;;;;;6.37;71.41;98543.59;1087320;54;20038;-79
2022/11/23 00:42:26;;;;;;;5.53;2.00;;;;;;;6.32;71.56;98541.38;1087202;54;20042;-79
2022/11/23 00:43:32;;;;;;;6.13;2.00;;;;;;;6.36;71.31;98547.22;1087446;54;20035;-79
2022/11/23 00:44:36;;;;;;;4.88;1.80;;;;;;;6.22;72.07;98543.28;1087347;54;20065;-79
2022/11/23 00:45:40;;;;;;;6.07;2.17;;;;;;;6.35;71.52;98550.84;1087086;54;20046;-79
2022/11/23 00:46:41;;;;;;;5.93;2.00;;;;;;;6.25;71.66;98542.97;1087425;54;20046;-79
2022/11/23 00:47:46;;;;;;;6.80;2.72;;;;;;;6.22;71.99;98545.94;1087472;47;20025;-79
2022/11/23 00:48:49;;;;;;;6.03;2.13;;;;;;;6.28;72.08;98547.16;1087433;54;20038;-78
2022/11/23 00:49:53;;;;;;;6.43;2.10;;;;;;;6.17;72.14;98543.75;1087440;54;20099;-80
2022/11/23 00:50:54;;;;;;;6.47;2.58;;;;;;;6.24;71.85;98550.13;1087784;39;20874;-79
2022/11/23 00:51:58;;;;;;;6.57;1.90;;;;;;;6.22;72.19;98540.66;1087447;54;20035;-79
2022/11/23 00:53:00;;;;;;;7.85;2.17;;;;;;;6.38;71.63;98554.03;1087440;54;20090;-79
2022/11/23 00:54:06;;;;;;;5.30;1.73;;;;;;;6.42;71.59;98551.09;1087382;54;20019;-79
2022/11/23 00:55:08;;;;;;;9.48;2.83;;;;;;;6.26;71.96;98536.69;1087508;54;20042;-79
2022/11/23 00:56:12;;;;;;;7.32;2.28;;;;;;;6.33;72.03;98547.53;1087490;54;20065;-79
2022/11/23 00:57:14;;;;;;;6.43;2.45;;;;;;;6.38;71.52;98547.88;1087540;54;20089;-78
2022/11/23 00:58:18;;;;;;;8.25;2.22;;;;;;;6.47;71.17;98540.81;1087417;54;20652;-79
2022/11/23 00:59:22;;;;;;;4.53;1.75;;;;;;;6.51;70.94;98547.50;1087351;54;20098;-79
2022/11/23 01:00:26;;;;;;;4.72;1.80;;;;;;;6.48;71.30;98547.78;1087338;54;20074;-79
2022/11/23 01:01:33;;;;;;;6.07;2.20;;;;;;;6.50;71.38;98551.97;1088869;39;20739;-79
2022/11/23 01:02:34;;;;;;;7.88;2.30;;;;;;;6.56;71.01;98545.19;1087417;54;20114;-78
2022/11/23 01:03:40;;;;;;;5.28;1.70;;;;;;;6.54;71.03;98555.97;1087447;54;20038;-78
2022/11/23 01:04:42;;;;;;;5.00;2.10;;;;;;;6.54;71.00;98550.66;1088002;31;20701;-79
2022/11/23 01:05:47;;;;;;;5.60;2.25;;;;;;;6.52;71.11;98543.81;1087494;54;20041;-79
2022/11/23 01:06:48;;;;;;;6.30;2.03;;;;;;;6.35;71.66;98553.50;1087425;54;20069;-79
2022/11/23 01:07:53;;;;;;;6.43;2.00;;;;;;;6.42;71.59;98545.78;1087388;54;20030;-79
2022/11/23 01:08:59;;;;;;;5.30;1.70;;;;;;;6.51;71.45;98540.34;1087280;54;20042;-80
2022/11/23 01:10:00;;;;;;;5.95;2.00;;;;;;;6.44;71.57;98543.78;1087346;54;20050;-79
2022/11/23 01:11:06;;;;;;;7.45;1.70;;;;;;;6.47;71.51;98538.97;1087886;39;20468;-80
2022/11/23 01:12:08;;;;;;;4.20;1.48;;;;;;;6.52;71.44;98547.31;1087199;54;20042;-78
2022/11/23 01:13:12;;;;;;;5.65;1.70;;;;;;;6.53;71.24;98540.19;1087378;54;20046;-78
2022/11/23 01:14:13;;;;;;;4.75;1.92;;;;;;;6.58;70.90;98532.59;1087362;54;20046;-80
2022/11/23 01:15:18;;;;;;;6.20;2.08;;;;;;;6.54;70.95;98544.50;1087270;54;20030;-79
2022/11/23 01:16:23;;;;;;;6.90;1.83;;;;;;;6.58;70.98;98545.88;1087327;54;20034;-79
2022/11/23 01:17:27;;;;;;;5.28;1.60;;;;;;;6.61;70.85;98542.91;1088033;31;20619;-78
2022/11/23 01:18:29;;;;;;;6.05;1.85;;;;;;;6.59;70.98;98547.53;1087371;54;20082;-78
2022/11/23 01:19:33;;;;;;;6.60;1.77;;;;;;;6.53;71.08;98549.00;1087446;54;20031;-78
2022/11/23 01:20:34;;;;;;;6.57;2.08;;;;;;;6.54;71.11;98548.00;1087295;54;20061;-79
2022/11/23 01:21:39;;;;;;;5.72;1.73;;;;;;;6.57;71.07;98552.19;1087330;54;20031;-79
2022/11/23 01:22:40;;;;;;;7.03;2.33;;;;;;;6.62;71.01;98541.91;1087379;54;21090;-79
2022/11/23 01:23:44;;;;;;;6.72;1.92;;;;;;;6.64;71.01;98547.91;1087463;54;20042;-79
2022/11/23 01:24:46;;;;;;;7.43;1.85;;;;;;;6.61;71.13;98545.56;1087217;54;20058;-79
2022/11/23 01:25:50;;;;;;;6.45;1.90;;;;;;;6.61;71.01;98542.91;1087253;54;20057;-78
2022/11/23 01:26:53;;;;;;;6.72;1.60;;;;;;;6.61;70.84;98542.06;1087304;54;20046;-79
2022/11/23 01:27:57;;;;;;;7.07;1.75;;;;;;;6.65;70.93;98533.63;1088248;39;20815;-79
2022/11/23 01:28:59;;;;;;;4.53;1.38;;;;;;;6.66;70.75;98542.44;1087255;54;20043;-79
2022/11/23 01:30:03;;;;;;;5.10;1.73;;;;;;;6.60;71.02;98543.91;1087271;54;20037;-79
2022/11/23 01:31:06;;;;;;;6.55;1.70;;;;;;;6.59;70.95;98544.03;1087251;54;20046;-79
2022/11/23 01:32:12;;;;;;;5.13;1.52;;;;;;;6.63;70.97;98548.88;1091298;39;20902;-79
2022/11/23 01:33:14;;;;;;;4.30;1.80;;;;;;;6.62;70.90;98547.22;1087304;54;20043;-79
2022/11/23 01:34:18;;;;;;;5.20;1.45;;;;;;;6.62;71.03;98544.56;1087006;54;20826;-79
2022/11/23 01:35:20;;;;;;;6.53;1.73;;;;;;;6.49;71.13;98547.63;1087313;54;20061;-78
2022/11/23 01:36:26;;;;;;;5.85;1.58;;;;;;;6.61;70.95;98550.88;1087363;54;20098;-78
2022/11/23 01:37:28;;;;;;;6.45;2.08;;;;;;;6.48;71.05;98545.13;1087046;54;20106;-80
2022/11/23 01:38:32;;;;;;;4.65;1.70;;;;;;;6.54;71.14;98540.06;1087248;54;20040;-78
2022/11/23 01:39:33;;;;;;;4.93;1.55;;;;;;;6.64;70.75;98542.59;1087199;54;20086;-79
2022/11/23 01:40:44;;;;;;;6.10;1.77;;;;;;;6.64;70.54;98545.25;1087213;54;20031;-79
2022/11/23 01:41:45;;;;;;;;;;;;;;;6.53;71.12;98542.84;1087349;54;20046;-78
2022/11/23 01:42:57;;;;;;;6.28;1.95;;;;;;;6.60;70.94;98537.75;1087245;54;20035;-79
2022/11/23 01:43:59;;;;;;;6.97;2.05;;;;;;;6.57;70.88;98544.22;1087219;54;20050;-79
2022/11/23 01:45:32;;;;;;;5.63;1.70;;;;;;;6.60;70.67;98549.22;1087057;54;20026;-78
2022/11/23 01:46:36;;;;;;;6.07;1.85;;;;;;;6.62;70.94;98546.41;1087434;54;20057;-78
2022/11/23 01:47:40;;;;;;;9.80;1.80;;;;;;;6.62;70.66;98552.53;1087188;54;20050;-79
2022/11/23 01:48:49;;;;;;;5.90;1.70;;;;;;;6.67;70.59;98546.75;1087345;54;20036;-79
2022/11/23 01:49:52;;;;;;;4.68;1.60;;;;;;;6.69;70.67;98542.97;1087324;54;20645;-79
2022/11/23 01:50:58;;;;;;;4.78;1.70;;;;;;;6.67;70.38;98552.91;1087316;54;20030;-79
2022/11/23 01:52:04;;;;;;;6.20;1.88;;;;;;;6.63;70.56;98542.75;1087297;54;20046;-79
2022/11/23 01:53:08;;;;;;;6.03;1.88;;;;;;;6.66;70.42;98547.75;1087215;54;20038;-78
2022/11/23 01:54:14;;;;;;;5.90;1.48;;;;;;;6.62;70.75;98551.72;1087374;54;20061;-79
2022/11/23 01:55:19;;;;;;;7.75;1.85;;;;;;;6.63;70.98;98554.19;1090437;39;20853;-78
2022/11/23 01:56:26;;;;;;;5.55;1.83;;;;;;;6.70;70.36;98544.63;1087331;54;20042;-79
2022/11/23 01:57:34;;;;;;;5.22;1.45;;;;;;;6.76;70.15;98553.78;1087238;54;20062;-79
2022/11/23 01:58:43;;;;;;;5.22;1.88;;;;;;;6.74;70.50;98552.28;1087268;54;20046;-79
2022/11/23 01:59:46;;;;;;;7.25;1.83;;;;;;;6.76;70.39;98547.66;1087277;54;20030;-80
2022/11/23 02:00:51;;;;;;;7.90;1.85;;;;;;;6.69;70.49;98556.25;1087373;47;20041;-78
2022/11/23 02:01:53;;;;;;;6.28;1.70;;;;;;;6.71;70.54;98556.09;1087296;54;20034;-79
2022/11/23 02:03:02;;;;;;;6.03;2.13;;;;;;;6.68;70.66;98559.88;1087135;54;20118;-80
2022/11/23 02:04:08;;;;;;;7.53;2.35;;;;;;;6.60;70.90;98561.66;1087269;54;20068;-79
2022/11/23 02:05:13;;;;;;;7.68;2.05;;;;;;;6.60;70.71;98565.16;1087130;54;20038;-79
2022/11/23 02:06:20;;;;;;;4.93;1.70;;;;;;;6.61;70.77;98566.81;1087187;54;20043;-78
2022/11/23 02:07:24;;;;;;;5.72;1.63;;;;;;;6.62;70.67;98564.97;1087314;54;20079;-79
2022/11/23 02:08:29;;;;;;;7.95;2.03;;;;;;;6.56;70.91;98564.59;1087145;54;20073;-79
2022/11/23 02:09:32;;;;;;;6.20;1.77;;;;;;;6.70;70.65;98567.69;1087198;54;20046;-78
2022/11/23 02:10:37;;;;;;;8.15;3.00;;;;;;;6.50;71.47;98569.72;1087171;54;20096;-78
2022/11/23 02:11:39;;;;;;;6.75;1.90;;;;;;;6.54;71.55;98566.59;1087242;54;20069;-78
2022/11/23 02:12:43;;;;;;;8.00;1.98;;;;;;;6.60;71.04;98565.16;1087269;54;20031;-79
2022/11/23 02:13:47;;;;;;;4.80;1.63;;;;;;;6.51;71.28;98566.91;1087105;54;20046;-78
2022/11/23 02:14:51;;;;;;;5.38;2.05;;;;;;;6.59;71.15;98562.63;1087347;54;20038;-78
2022/11/23 02:15:55;;;;;;;5.30;1.70;;;;;;;6.66;70.91;98563.69;1087177;54;20131;-78
2022/11/23 02:17:00;;;;;;;5.82;1.80;;;;;;;6.65;70.85;98568.16;1087188;54;20050;-79
2022/11/23 02:18:10;;;;;;;8.32;1.85;;;;;;;6.74;70.82;98574.38;1087128;54;20072;-79
2022/11/23 02:19:34;;;;;;;5.70;1.95;;;;;;;6.72;70.79;98565.72;1087283;54;20054;-79
2022/11/23 02:20:36;;;;;;;6.70;1.85;;;;;;;6.75;70.47;98570.72;1087263;54;20042;-79
2022/11/23 02:21:41;;;;;;;4.85;1.55;;;;;;;6.82;70.34;98570.91;1087368;54;20034;-78
2022/11/23 02:22:50;;;;;;;5.00;1.60;;;;;;;6.84;70.39;98566.28;1087898;39;20668;-79
2022/11/23 02:24:01;;;;;;;4.82;1.63;;;;;;;6.78;70.57;98564.25;1087593;54;20033;-79
2022/11/23 02:25:08;;;;;;;5.78;1.40;;;;;;;6.82;70.24;98579.72;1088401;47;20050;-79
2022/11/23 02:26:18;;;;;;;6.15;1.73;;;;;;;6.82;70.37;98571.75;1087746;54;20050;-79
2022/11/23 02:27:20;;;;;;;5.10;1.57;;;;;;;6.74;70.38;98566.41;1089196;47;20094;-79
2022/11/23 02:28:30;;;;;;;5.88;1.58;;;;;;;6.88;70.18;98578.28;1090004;47;20622;-80
2022/11/23 02:29:33;;;;;;;4.10;1.45;;;;;;;6.91;69.96;98569.97;1087729;54;20106;-79
2022/11/23 02:30:41;;;;;;;5.65;1.77;;;;;;;6.95;69.87;98571.34;1088949;47;20038;-78
2022/11/23 02:31:42;;;;;;;6.85;1.42;;;;;;;6.95;69.85;98571.34;1087770;54;20078;-78
2022/11/23 02:32:46;;;;;;;5.45;1.38;;;;;;;6.98;69.89;98579.00;1087737;54;20035;-79
2022/11/23 02:33:48;;;;;;;5.32;1.83;;;;;;;6.94;69.88;98572.31;1087248;54;20090;-79
2022/11/23 02:34:52;;;;;;;5.75;1.77;;;;;;;6.96;69.73;98567.69;1087035;47;20037;-80
2022/11/23 02:35:56;;;;;;;6.10;1.80;;;;;;;6.97;69.95;98566.69;1090671;39;20172;-80
2022/11/23 02:37:00;;;;;;;4.03;1.60;;;;;;;6.90;69.96;98570.94;1087199;54;20018;-78
2022/11/23 02:38:05;;;;;;;7.28;2.38;;;;;;;6.98;70.09;98567.53;1087138;54;20094;-79
2022/11/23 02:39:12;;;;;;;4.47;1.63;;;;;;;6.92;70.09;98570.81;1087110;54;20026;-79
2022/11/23 02:40:24;;;;;;;5.38;1.70;;;;;;;6.94;69.87;98564.34;1086943;54;20038;-80
2022/11/23 02:41:37;;;;;;;5.05;1.48;;;;;;;6.92;70.41;98568.97;1087150;54;20049;-79
2022/11/23 02:42:38;;;;;;;8.32;2.10;;;;;;;6.88;70.15;98567.66;1087019;54;20046;-79
2022/11/23 02:43:42;;;;;;;6.63;1.92;;;;;;;6.89;70.47;98573.78;1087240;54;20037;-79
2022/11/23 02:44:52;;;;;;;5.53;1.38;;;;;;;6.89;70.15;98571.97;1086973;54;20120;-81
2022/11/23 02:45:59;;;;;;;5.43;1.95;;;;;;;6.94;70.04;98572.31;1087139;54;20032;-79
2022/11/23 02:47:01;;;;;;;5.28;1.67;;;;;;;6.97;69.89;98574.66;1087075;54;20117;-79
2022/11/23 02:48:05;;;;;;;7.05;1.88;;;;;;;7.04;70.04;98582.81;1087193;54;20031;-79
2022/11/23 02:49:07;;;;;;;5.18;1.52;;;;;;;6.97;69.98;98577.31;1087653;46;20038;-78
2022/11/23 02:50:11;;;;;;;6.45;1.73;;;;;;;7.01;69.87;98567.22;1087495;54;20034;-78
2022/11/23 02:51:13;;;;;;;5.75;1.70;;;;;;;7.01;69.71;98568.03;1087387;54;20038;-78
2022/11/23 02:52:18;;;;;;;5.38;1.70;;;;;;;7.05;69.58;98576.53;1087562;54;20026;-80
2022/11/23 02:53:19;;;;;;;7.60;2.10;;;;;;;7.01;69.86;98573.34;1087431;54;20097;-78
2022/11/23 02:54:24;;;;;;;6.43;1.88;;;;;;;6.97;69.99;98566.69;1091592;39;20202;-78
2022/11/23 02:55:25;;;;;;;6.15;1.85;;;;;;;6.96;69.95;98562.38;1087544;54;21024;-79
2022/11/23 02:56:32;;;;;;;5.40;1.50;;;;;;;6.92;70.12;98566.31;1087614;54;20077;-80
2022/11/23 02:57:33;;;;;;;10.52;2.70;;;;;;;6.92;70.01;98568.97;1087489;54;20101;-79
2022/11/23 02:58:37;;;;;;;5.45;1.65;;;;;;;7.01;69.85;98568.03;1087471;54;20065;-79
2022/11/23 02:59:39;;;;;;;7.47;1.98;;;;;;;6.94;69.81;98566.19;1089088;31;20690;-79
2022/11/23 03:00:43;;;;;;;5.80;1.65;;;;;;;6.97;70.00;98572.00;1087500;54;20038;-78
2022/11/23 03:01:44;;;;;;;7.00;1.65;;;;;;;7.04;69.87;98569.53;1087502;54;20126;-79
2022/11/23 03:02:48;;;;;;;4.40;1.20;;;;;;;7.08;69.76;98567.41;1087441;54;20042;-79
2022/11/23 03:03:50;;;;;;;4.05;1.40;;;;;;;6.96;69.78;98573.00;1087982;39;20220;-79
2022/11/23 03:04:54;;;;;;;6.05;1.77;;;;;;;7.01;69.92;98576.00;1087598;54;20030;-81
2022/11/23 03:05:55;;;;;;;6.95;1.75;;;;;;;7.00;69.88;98570.84;1087729;54;20065;-79
2022/11/23 03:07:00;;;;;;;5.82;2.10;;;;;;;6.98;69.85;98571.03;1089224;46;20065;-79
2022/11/23 03:08:01;;;;;;;5.00;1.40;;;;;;;7.01;69.95;98568.03;1088352;46;20065;-80
2022/11/23 03:09:05;;;;;;;3.45;1.27;;;;;;;7.04;69.90;98572.19;1087635;54;20033;-80
2022/11/23 03:10:08;;;;;;;5.63;1.83;;;;;;;6.97;69.94;98566.69;1087612;54;20129;-79
2022/11/23 03:11:12;;;;;;;5.13;1.67;;;;;;;7.01;69.87;98568.03;1088202;46;21019;-80
2022/11/23 03:12:16;;;;;;;4.75;1.73;;;;;;;7.06;69.65;98569.41;1088614;39;20863;-79
2022/11/23 03:13:21;;;;;;;5.07;1.70;;;;;;;6.92;70.10;98566.31;1087623;54;20015;-79
2022/11/23 03:14:22;;;;;;;5.63;1.70;;;;;;;7.02;69.71;98566.22;1087692;54;20046;-79
2022/11/23 03:15:27;;;;;;;4.03;1.42;;;;;;;6.98;69.90;98563.06;1087541;54;20118;-79
2022/11/23 03:16:28;;;;;;;4.88;1.30;;;;;;;6.99;69.46;98571.84;1087666;54;20038;-79
2022/11/23 03:17:34;;;;;;;5.82;1.55;;;;;;;7.05;69.67;98567.72;1087587;54;21243;-80
2022/11/23 03:18:35;;;;;;;6.65;1.88;;;;;;;7.09;69.61;98569.06;1087608;54;20038;-80
2022/11/23 03:19:39;;;;;;;5.50;2.00;;;;;;;7.14;69.24;98566.78;1087604;54;20034;-80
2022/11/23 03:20:41;;;;;;;6.35;1.80;;;;;;;7.09;69.38;98569.06;1087513;54;21125;-80
2022/11/23 03:21:45;;;;;;;9.27;2.35;;;;;;;7.06;69.34;98580.03;1087653;54;20038;-81
2022/11/23 03:22:46;;;;;;;5.22;1.58;;;;;;;6.99;69.60;98572.66;1088013;46;20061;-79
2022/11/23 03:23:50;;;;;;;9.43;2.38;;;;;;;7.00;69.72;98574.34;1087598;54;20031;-79
2022/11/23 03:24:52;;;;;;;5.30;1.58;;;;;;;6.96;69.82;98577.47;1087560;54;20115;-80
2022/11/23 03:26:00;;;;;;;6.63;1.70;;;;;;;7.11;69.61;98575.06;1087618;54;20037;-79
2022/11/23 03:27:02;;;;;;;6.25;1.80;;;;;;;7.08;69.22;98575.41;1089383;46;20061;-80
2022/11/23 03:28:09;;;;;;;5.53;1.67;;;;;;;7.02;69.58;98569.72;1090127;39;20610;-80
2022/11/23 03:29:10;;;;;;;6.88;1.30;;;;;;;7.00;69.47;98573.53;1087557;54;20767;-80
2022/11/23 03:30:15;;;;;;;9.70;1.90;;;;;;;7.06;69.44;98570.22;1089953;46;20034;-79
2022/11/23 03:31:16;;;;;;;7.68;2.35;;;;;;;7.07;69.58;98579.03;1088872;46;20069;-80
2022/11/23 03:32:20;;;;;;;5.85;2.03;;;;;;;7.00;69.64;98577.00;1087652;54;20030;-80
2022/11/23 03:33:22;;;;;;;6.95;2.05;;;;;;;7.00;69.66;98578.84;1090176;46;20069;-80
2022/11/23 03:34:26;;;;;;;6.65;1.80;;;;;;;6.96;69.43;98574.81;1087553;54;20869;-80
2022/11/23 03:35:28;;;;;;;5.57;1.80;;;;;;;6.89;69.77;98579.94;1087109;54;20034;-79
2022/11/23 03:36:32;;;;;;;6.13;1.55;;;;;;;6.90;69.72;98578.09;1087102;54;20148;-79
2022/11/23 03:37:33;;;;;;;5.43;1.50;;;;;;;6.87;69.73;98584.56;1087588;54;20098;-80
2022/11/23 03:38:38;;;;;;;6.22;1.80;;;;;;;6.87;69.67;98587.22;1087572;54;20041;-80
2022/11/23 03:39:39;;;;;;;5.93;1.83;;;;;;;7.01;69.56;98576.00;1087582;54;20034;-79
2022/11/23 03:40:46;;;;;;;7.03;1.70;;;;;;;7.10;69.34;98570.72;1087526;54;20058;-80
2022/11/23 03:41:47;;;;;;;7.25;2.00;;;;;;;7.08;69.46;98575.41;1087673;54;20031;-79
2022/11/23 03:42:52;;;;;;;7.03;1.58;;;;;;;6.99;69.51;98571.84;1088133;46;20918;-80
2022/11/23 03:43:57;;;;;;;5.35;1.60;;;;;;;7.02;69.45;98571.53;1087660;54;20050;-79
2022/11/23 03:45:01;;;;;;;5.15;1.40;;;;;;;7.09;69.35;98569.06;1087316;54;20121;-79
2022/11/23 03:46:02;;;;;;;7.18;1.98;;;;;;;7.06;69.15;98570.22;1087594;54;20694;-79
2022/11/23 03:47:06;;;;;;;6.03;1.80;;;;;;;7.14;69.08;98566.78;1089651;39;20919;-80
2022/11/23 03:48:08;;;;;;;4.93;1.80;;;;;;;7.10;69.13;98570.72;1087668;54;20034;-80
2022/11/23 03:49:12;;;;;;;5.20;1.50;;;;;;;7.14;68.82;98566.78;1087600;54;20031;-80
2022/11/23 03:50:13;;;;;;;6.13;1.60;;;;;;;7.05;69.55;98563.22;1087640;54;20086;-80
2022/11/23 03:51:18;;;;;;;5.97;1.77;;;;;;;6.98;69.17;98568.38;1087633;54;20027;-80
2022/11/23 03:52:19;;;;;;;6.85;2.33;;;;;;;6.84;69.60;98571.59;1087603;54;20065;-80
2022/11/23 03:53:23;;;;;;;6.32;1.63;;;;;;;6.91;69.49;98563.84;1093167;39;20994;-79
2022/11/23 03:54:25;;;;;;;10.80;2.13;;;;;;;6.92;69.71;98563.66;1087624;54;20090;-80
2022/11/23 03:55:29;;;;;;;6.28;1.80;;;;;;;6.83;69.98;98575.25;1087569;54;20037;-80
2022/11/23 03:56:30;;;;;;;8.75;1.70;;;;;;;6.93;69.57;98565.34;1087603;54;20046;-80
2022/11/23 03:57:35;;;;;;;6.20;1.88;;;;;;;6.95;69.35;98568.69;1087561;54;20037;-80
2022/11/23 03:58:36;;;;;;;4.55;1.55;;;;;;;6.98;69.58;98564.88;1087636;54;20065;-82
2022/11/23 03:59:43;;;;;;;5.70;1.70;;;;;;;6.94;69.75;98564.34;1087492;54;20011;-79
2022/11/23 04:00:44;;;;;;;7.18;1.85;;;;;;;6.84;69.90;98568.94;1087489;54;20057;-79
2022/11/23 04:01:48;;;;;;;5.13;1.77;;;;;;;6.91;69.84;98562.00;1087590;54;20065;-81
2022/11/23 04:02:50;;;;;;;6.00;1.60;;;;;;;7.03;69.49;98560.75;1087663;54;20046;-79
2022/11/23 04:03:54;;;;;;;7.13;1.73;;;;;;;7.01;69.61;98564.56;1087614;54;20015;-80
2022/11/23 04:04:55;;;;;;;7.57;1.88;;;;;;;6.95;69.82;98547.41;1087565;54;20046;-80
2022/11/23 04:06:00;;;;;;;7.22;1.80;;;;;;;7.05;69.37;98567.72;1089937;46;20098;-80
2022/11/23 04:07:01;;;;;;;5.93;1.92;;;;;;;6.99;69.81;98555.91;1088563;39;20304;-80
2022/11/23 04:08:06;;;;;;;6.03;1.80;;;;;;;6.71;70.46;98567.53;1087496;54;20058;-79
2022/11/23 04:09:07;;;;;;;6.47;1.80;;;;;;;6.90;70.08;98555.00;1087563;54;20042;-79
2022/11/23 04:10:12;;;;;;;4.15;1.50;;;;;;;6.96;69.61;98550.91;1087511;54;20030;-79
2022/11/23 04:11:13;;;;;;;5.65;1.60;;;;;;;6.98;69.63;98557.75;1087560;54;20110;-80
2022/11/23 04:12:17;;;;;;;7.55;2.55;;;;;;;6.92;70.04;98557.53;1087578;54;20034;-80
2022/11/23 04:13:18;;;;;;;7.65;2.20;;;;;;;7.03;69.41;98559.94;1087527;54;20784;-80
2022/11/23 04:14:23;;;;;;;5.28;1.50;;;;;;;6.99;69.71;98551.41;1087893;46;20034;-79
2022/11/23 04:15:27;;;;;;;6.47;1.60;;;;;;;6.89;69.64;98564.00;1087556;54;21092;-79
2022/11/23 04:16:31;;;;;;;4.85;1.42;;;;;;;6.91;69.82;98555.88;1087559;54;20158;-79
2022/11/23 04:17:32;;;;;;;4.68;1.75;;;;;;;6.88;69.60;98551.72;1088565;46;20082;-79
2022/11/23 04:18:36;;;;;;;4.72;1.42;;;;;;;6.90;69.74;98555.00;1087496;54;20057;-80
2022/11/23 04:19:38;;;;;;;5.97;1.60;;;;;;;6.92;69.60;98553.03;1087564;54;20369;-80
2022/11/23 04:20:42;;;;;;;5.60;1.70;;;;;;;6.90;69.78;98552.34;1087582;54;20050;-80
2022/11/23 04:21:43;;;;;;;6.43;1.88;;;;;;;6.96;69.79;98553.56;1093602;31;20847;-80
2022/11/23 04:22:47;;;;;;;7.90;1.98;;;;;;;6.93;69.58;98549.41;1087566;54;20050;-80
2022/11/23 04:23:49;;;;;;;5.38;1.90;;;;;;;7.04;69.46;98550.94;1089231;31;20828;-79
2022/11/23 04:24:53;;;;;;;5.65;1.77;;;;;;;7.08;69.21;98551.47;1087593;54;20030;-80
2022/11/23 04:25:54;;;;;;;4.68;1.52;;;;;;;7.12;69.03;98551.00;1087493;54;20046;-81
2022/11/23 04:26:58;;;;;;;6.25;2.00;;;;;;;6.99;69.32;98543.44;1087554;54;20038;-79
2022/11/23 04:28:00;;;;;;;4.35;1.52;;;;;;;7.08;69.09;98541.66;1087527;54;20065;-78
2022/11/23 04:29:04;;;;;;;5.53;1.70;;;;;;;7.17;69.09;98539.88;1087565;54;20034;-80
2022/11/23 04:30:07;;;;;;;4.18;1.38;;;;;;;7.11;68.94;98548.47;1087533;46;20098;-81
2022/11/23 04:31:14;;;;;;;5.20;1.45;;;;;;;7.05;69.15;98549.13;1087596;54;20085;-79
2022/11/23 04:32:16;;;;;;;5.55;1.50;;;;;;;7.07;69.37;98547.16;1087990;54;20097;-80
2022/11/23 04:33:22;;;;;;;5.28;1.80;;;;;;;7.08;69.25;98548.81;1087946;54;20052;-79
2022/11/23 04:34:23;;;;;;;6.47;2.00;;;;;;;7.02;69.33;98548.44;1087965;54;20068;-79
2022/11/23 04:35:27;;;;;;;6.68;1.50;;;;;;;7.08;69.05;98551.47;1087914;54;20031;-80
2022/11/23 04:36:29;;;;;;;5.85;1.65;;;;;;;7.06;69.23;98542.81;1088043;54;20039;-80
2022/11/23 04:37:33;;;;;;;4.47;1.40;;;;;;;7.05;69.08;98549.13;1088684;46;20030;-80
2022/11/23 04:38:34;;;;;;;4.20;1.52;;;;;;;6.96;69.27;98542.94;1088045;54;20042;-80
2022/11/23 04:39:39;;;;;;;7.05;2.03;;;;;;;6.93;69.25;98541.44;1088127;46;20102;-80
2022/11/23 04:40:40;;;;;;;4.88;1.95;;;;;;;6.99;69.33;98548.75;1088023;54;20667;-79
2022/11/23 04:41:46;;;;;;;5.65;1.67;;;;;;;7.01;69.25;98545.97;1088068;54;20030;-79
2022/11/23 04:42:47;;;;;;;4.85;1.40;;;;;;;7.10;69.10;98544.16;1088140;54;20049;-80
2022/11/23 04:43:54;;;;;;;5.57;1.75;;;;;;;6.92;69.26;98542.41;1090319;39;20334;-79
2022/11/23 04:44:56;;;;;;;5.32;1.35;;;;;;;6.88;69.52;98543.75;1087853;54;20065;-79
2022/11/23 04:46:19;;;;;;;5.72;1.73;;;;;;;6.86;69.14;98551.03;1088062;54;20033;-79
2022/11/23 04:47:21;;;;;;;3.92;1.23;;;;;;;6.93;69.28;98543.25;1087728;54;20718;-79
2022/11/23 04:48:25;;;;;;;5.97;1.90;;;;;;;6.94;69.23;98536.97;1087660;54;20678;-79
2022/11/23 04:49:26;;;;;;;6.72;2.08;;;;;;;6.95;69.52;98539.44;1087670;54;20054;-80
2022/11/23 04:50:32;;;;;;;4.93;1.30;;;;;;;7.02;69.30;98535.16;1087566;54;20030;-80
2022/11/23 04:51:34;;;;;;;4.15;1.58;;;;;;;7.05;69.13;98541.16;1087654;54;20041;-80
2022/11/23 04:52:38;;;;;;;4.18;1.50;;;;;;;7.05;68.86;98535.84;1087554;54;20041;-80
2022/11/23 04:53:39;;;;;;;7.35;1.75;;;;;;;6.95;69.31;98542.09;1087689;54;20034;-79
2022/11/23 04:54:44;;;;;;;4.80;1.70;;;;;;;6.83;69.41;98538.91;1089196;46;20031;-80
2022/11/23 04:55:46;;;;;;;5.45;1.58;;;;;;;6.92;68.91;98539.75;1087475;54;20061;-79
2022/11/23 04:56:50;;;;;;;5.35;1.50;;;;;;;6.71;69.35;98540.16;1087628;54;20090;-80
2022/11/23 04:57:51;;;;;;;4.65;1.63;;;;;;;6.82;69.48;98539.88;1087345;54;20090;-79
2022/11/23 04:58:56;;;;;;;7.03;1.67;;;;;;;6.81;69.24;98540.88;1087617;54;20018;-79
2022/11/23 04:59:58;;;;;;;5.72;1.63;;;;;;;6.85;69.32;98539.56;1087750;54;20054;-80
2022/11/23 05:01:02;;;;;;;6.90;2.08;;;;;;;6.77;69.41;98544.81;1087738;54;20026;-79
2022/11/23 05:02:16;;;;;;;6.60;1.63;;;;;;;6.93;69.00;98544.09;1087697;54;20045;-80
2022/11/23 05:03:28;;;;;;;7.88;1.70;;;;;;;6.72;69.37;98537.31;1087317;54;20069;-79
2022/11/23 05:04:36;;;;;;;7.57;1.85;;;;;;;6.69;69.75;98537.66;1087700;54;20034;-79
2022/11/23 05:05:51;;;;;;;7.78;2.03;;;;;;;6.67;69.30;98544.09;1087670;54;20030;-80